createdAt,value
2022-10-06T00:01:05.960Z,100788.50
2022-10-06T00:03:34.550Z,100796.31
2022-10-06T00:06:04.497Z,100805.03
2022-10-06T00:08:35.742Z,100810.25
2022-10-06T00:11:04.124Z,100813.69
2022-10-06T00:13:33.079Z,100811.88
2022-10-06T00:16:02.158Z,100815.31
2022-10-06T00:18:31.274Z,100817.88
2022-10-06T00:21:04.093Z,100814.34
2022-10-06T00:23:34.303Z,100816.88
2022-10-06T00:26:02.733Z,100828.28
2022-10-06T00:28:31.654Z,100825.59
2022-10-06T00:31:02.865Z,100815.88
2022-10-06T00:33:31.338Z,100825.47
2022-10-06T00:36:00.783Z,100840.38
2022-10-06T00:38:29.974Z,100842.13
2022-10-06T00:40:59.831Z,100847.31
2022-10-06T00:43:47.250Z,100847.22
2022-10-06T00:46:21.460Z,100840.16
2022-10-06T00:48:54.127Z,100847.97
2022-10-06T00:51:23.183Z,100853.19
2022-10-06T00:53:52.111Z,100860.19
2022-10-06T00:56:21.809Z,100869.78
2022-10-06T00:58:50.350Z,100861.88
2022-10-06T01:01:18.864Z,100863.56
2022-10-06T01:03:52.681Z,100878.41
2022-10-06T01:06:21.190Z,100874.88
2022-10-06T01:08:49.961Z,100879.19
2022-10-06T01:11:18.280Z,100880.94
2022-10-06T01:13:48.031Z,100881.81
2022-10-06T01:16:20.871Z,100892.28
2022-10-06T01:18:49.821Z,100890.53
2022-10-06T01:21:26.129Z,100895.72
2022-10-06T01:23:57.088Z,100899.22
2022-10-06T01:26:28.076Z,100902.72
2022-10-06T01:28:56.857Z,100895.69
2022-10-06T01:31:27.654Z,100902.72
2022-10-06T01:33:57.049Z,100902.72
2022-10-06T01:36:25.664Z,100903.59
2022-10-06T01:38:55.353Z,100913.22
2022-10-06T01:41:24.810Z,100920.25
2022-10-06T01:43:53.102Z,100922.81
2022-10-06T01:46:22.252Z,100928.06
2022-10-06T01:48:51.193Z,100926.31
2022-10-06T01:51:20.087Z,100929.78
2022-10-06T01:53:48.496Z,100927.13
2022-10-06T01:56:18.819Z,100928.88
2022-10-06T01:58:47.662Z,100932.38
2022-10-06T02:01:16.472Z,100936.59
2022-10-06T02:03:44.936Z,100943.59
2022-10-06T02:06:13.391Z,100940.03
2022-10-06T02:08:44.149Z,100949.63
2022-10-06T02:11:13.057Z,100946.09
2022-10-06T02:13:46.035Z,100954.78
2022-10-06T02:16:14.733Z,100967.91
2022-10-06T02:18:44.432Z,100961.75
2022-10-06T02:21:16.762Z,100958.19
2022-10-06T02:23:45.355Z,100967.81
2022-10-06T02:26:14.486Z,100974.75
2022-10-06T02:28:44.694Z,100972.06
2022-10-06T02:31:16.167Z,100972.06
2022-10-06T02:33:44.908Z,100977.31
2022-10-06T02:36:15.402Z,100975.56
2022-10-06T02:38:44.641Z,100981.75
2022-10-06T02:41:13.027Z,100988.72
2022-10-06T02:43:41.485Z,100989.63
2022-10-06T02:46:13.024Z,100997.56
2022-10-06T02:48:48.250Z,101002.81
2022-10-06T02:51:18.661Z,101003.69
2022-10-06T02:53:49.059Z,101003.69
2022-10-06T02:56:21.457Z,100997.56
2022-10-06T02:58:51.607Z,101009.00
2022-10-06T03:01:32.115Z,101026.56
2022-10-06T03:04:07.198Z,101027.47
2022-10-06T03:06:36.589Z,101017.78
2022-10-06T03:09:10.808Z,101030.94
2022-10-06T03:11:43.354Z,101032.66
2022-10-06T03:14:19.237Z,101037.03
2022-10-06T03:16:51.469Z,101034.34
2022-10-06T03:19:25.573Z,101044.84
2022-10-06T03:21:54.598Z,101042.09
2022-10-06T03:24:27.342Z,101055.22
2022-10-06T03:26:59.063Z,101049.94
2022-10-06T03:29:30.893Z,101057.75
2022-10-06T03:31:59.302Z,101062.06
2022-10-06T03:34:29.193Z,101063.75
2022-10-06T03:36:59.414Z,101069.88
2022-10-06T03:39:29.649Z,101082.06
2022-10-06T03:41:57.981Z,101083.72
2022-10-06T03:44:27.088Z,101092.41
2022-10-06T03:46:55.573Z,101095.81
2022-10-06T03:49:23.921Z,101101.00
2022-10-06T03:51:54.889Z,101106.16
2022-10-06T03:54:27.706Z,101110.44
2022-10-06T03:56:56.715Z,101106.84
2022-10-06T03:59:26.902Z,101111.06
2022-10-06T04:01:56.088Z,101120.63
2022-10-06T04:04:31.618Z,101132.00
2022-10-06T04:07:05.020Z,101136.28
2022-10-06T04:09:33.357Z,101143.22
2022-10-06T04:12:02.766Z,101145.75
2022-10-06T04:14:33.356Z,101152.69
2022-10-06T04:17:02.109Z,101156.94
2022-10-06T04:19:33.594Z,101157.72
2022-10-06T04:22:01.996Z,101154.16
2022-10-06T04:24:32.813Z,101153.19
2022-10-06T04:27:15.067Z,101166.22
2022-10-06T04:29:45.496Z,101172.25
2022-10-06T04:32:15.816Z,101172.16
2022-10-06T04:34:44.144Z,101175.56
2022-10-06T04:37:13.055Z,101179.84
2022-10-06T04:39:43.854Z,101181.53
2022-10-06T04:42:12.184Z,101182.31
2022-10-06T04:44:40.630Z,101190.97
2022-10-06T04:47:08.949Z,101193.47
2022-10-06T04:49:37.297Z,101203.06
2022-10-06T04:52:06.386Z,101195.06
2022-10-06T04:54:37.619Z,101199.31
2022-10-06T04:57:08.631Z,101200.09
2022-10-06T04:59:54.970Z,101208.75
2022-10-06T05:02:24.525Z,101219.16
2022-10-06T05:04:56.009Z,101222.47
2022-10-06T05:07:25.141Z,101217.13
2022-10-06T05:09:55.585Z,101223.13
2022-10-06T05:12:25.479Z,101222.19
2022-10-06T05:14:53.847Z,101234.41
2022-10-06T05:17:22.162Z,101245.59
2022-10-06T05:19:50.523Z,101251.69
2022-10-06T05:22:18.818Z,101259.41
2022-10-06T05:24:47.281Z,101263.75
2022-10-06T05:27:15.652Z,101260.97
2022-10-06T05:29:46.191Z,101266.94
2022-10-06T05:32:14.485Z,101267.59
2022-10-06T05:34:43.529Z,101266.66
2022-10-06T05:37:12.314Z,101273.53
2022-10-06T05:39:41.048Z,101275.25
2022-10-06T05:42:09.418Z,101278.69
2022-10-06T05:44:37.737Z,101281.19
2022-10-06T05:47:11.707Z,101288.97
2022-10-06T05:49:40.017Z,101296.72
2022-10-06T05:52:08.351Z,101301.84
2022-10-06T05:54:37.989Z,101302.63
2022-10-06T05:57:07.906Z,101304.25
2022-10-06T05:59:36.836Z,101304.16
2022-10-06T06:02:06.388Z,101315.41
2022-10-06T06:04:45.485Z,101325.81
2022-10-06T06:07:14.587Z,101324.84
2022-10-06T06:09:44.983Z,101325.69
2022-10-06T06:12:14.247Z,101328.19
2022-10-06T06:15:03.502Z,101342.94
2022-10-06T06:17:37.635Z,101342.88
2022-10-06T06:20:09.583Z,101341.09
2022-10-06T06:22:38.775Z,101349.72
2022-10-06T06:25:08.823Z,101344.47
2022-10-06T06:27:37.105Z,101354.06
2022-10-06T06:30:07.656Z,101360.19
2022-10-06T06:32:36.914Z,101360.13
2022-10-06T06:35:06.308Z,101361.94
2022-10-06T06:37:36.058Z,101366.31
2022-10-06T06:40:04.775Z,101368.06
2022-10-06T06:42:37.355Z,101374.19
2022-10-06T06:45:25.857Z,101378.59
2022-10-06T06:48:02.300Z,101389.16
2022-10-06T06:50:31.674Z,101398.88
2022-10-06T06:53:02.799Z,101397.28
2022-10-06T06:55:33.713Z,101393.84
2022-10-06T06:58:02.233Z,101392.13
2022-10-06T07:00:35.929Z,101398.41
2022-10-06T07:03:06.074Z,101405.44
2022-10-06T07:05:35.432Z,101402.06
2022-10-06T07:08:05.328Z,101407.41
2022-10-06T07:10:35.339Z,101410.16
2022-10-06T07:13:04.458Z,101409.41
2022-10-06T07:15:50.247Z,101415.63
2022-10-06T07:18:35.851Z,101417.56
2022-10-06T07:21:27.740Z,101424.66
2022-10-06T07:24:15.389Z,101437.16
2022-10-06T07:26:43.893Z,101443.38
2022-10-06T07:29:12.848Z,101452.31
2022-10-06T07:31:43.519Z,101455.13
2022-10-06T07:34:12.068Z,101464.03
2022-10-06T07:36:40.547Z,101463.25
2022-10-06T07:39:11.161Z,101467.78
2022-10-06T07:41:39.909Z,101468.00
2022-10-06T07:44:08.750Z,101475.09
2022-10-06T07:46:38.866Z,101483.09
2022-10-06T07:49:14.666Z,101475.44
2022-10-06T07:51:43.183Z,101473.84
2022-10-06T07:54:12.947Z,101483.63
2022-10-06T07:56:54.372Z,101496.06
2022-10-06T07:59:22.853Z,101498.00
2022-10-06T08:01:52.525Z,101494.66
2022-10-06T08:04:20.905Z,101497.47
2022-10-06T08:06:49.489Z,101499.34
2022-10-06T08:09:19.864Z,101505.69
2022-10-06T08:11:48.802Z,101503.25
2022-10-06T08:14:17.167Z,101513.97
2022-10-06T08:16:45.722Z,101515.88
2022-10-06T08:19:14.571Z,101516.97
2022-10-06T08:21:43.070Z,101515.44
2022-10-06T08:24:11.827Z,101517.34
2022-10-06T08:26:43.876Z,101519.25
2022-10-06T08:29:12.233Z,101527.34
2022-10-06T08:31:40.622Z,101520.47
2022-10-06T08:34:11.947Z,101527.66
2022-10-06T08:36:45.024Z,101526.09
2022-10-06T08:39:20.724Z,101527.19
2022-10-06T08:41:53.138Z,101526.47
2022-10-06T08:44:30.546Z,101523.13
2022-10-06T08:47:02.181Z,101526.00
2022-10-06T08:49:38.421Z,101529.72
2022-10-06T08:52:21.152Z,101537.00
2022-10-06T08:54:58.439Z,101528.41
2022-10-06T08:57:37.883Z,101532.19
2022-10-06T09:00:12.437Z,101542.91
2022-10-06T09:02:43.302Z,101546.59
2022-10-06T09:05:16.043Z,101541.53
2022-10-06T09:07:58.175Z,101548.75
2022-10-06T09:10:42.509Z,101550.69
2022-10-06T09:13:21.630Z,101561.50
2022-10-06T09:15:55.151Z,101573.13
2022-10-06T09:18:49.400Z,101563.66
2022-10-06T09:21:30.248Z,101573.53
2022-10-06T09:24:06.235Z,101579.88
2022-10-06T09:26:36.774Z,101576.56
2022-10-06T09:29:06.419Z,101575.00
2022-10-06T09:31:38.812Z,101581.31
2022-10-06T09:34:19.810Z,101583.28
2022-10-06T09:37:02.955Z,101584.31
2022-10-06T09:39:36.484Z,101586.19
2022-10-06T09:42:14.696Z,101584.59
2022-10-06T09:44:58.220Z,101590.94
2022-10-06T09:47:44.756Z,101589.44
2022-10-06T09:50:22.901Z,101593.13
2022-10-06T09:53:11.998Z,101591.53
2022-10-06T09:55:53.687Z,101590.75
2022-10-06T09:58:29.475Z,101596.22
2022-10-06T10:01:01.122Z,101597.19
2022-10-06T10:03:51.406Z,101598.16
2022-10-06T10:06:32.513Z,101587.84
2022-10-06T10:09:22.891Z,101589.00
2022-10-06T10:12:19.878Z,101591.91
2022-10-06T10:14:48.401Z,101586.88
2022-10-06T10:17:21.185Z,101592.41
2022-10-06T10:19:54.195Z,101590.03
2022-10-06T10:22:26.234Z,101601.75
2022-10-06T10:25:05.362Z,101596.41
2022-10-06T10:27:42.631Z,101592.78
2022-10-06T10:30:14.039Z,101587.59
2022-10-06T10:32:57.524Z,101595.66
2022-10-06T10:35:28.288Z,101595.81
2022-10-06T10:38:02.775Z,101603.03
2022-10-06T10:40:33.800Z,101589.06
2022-10-06T10:43:09.993Z,101584.81
2022-10-06T10:45:44.874Z,101606.28
2022-10-06T10:48:19.267Z,101601.31
2022-10-06T10:50:56.617Z,101606.06
2022-10-06T10:53:31.540Z,101592.19
2022-10-06T10:56:01.498Z,101597.72
2022-10-06T10:58:35.352Z,101600.56
2022-10-06T11:01:09.810Z,101602.63
2022-10-06T11:03:39.387Z,101596.69
2022-10-06T11:06:34.839Z,101606.66
2022-10-06T11:09:07.758Z,101599.91
2022-10-06T11:11:52.337Z,101591.25
2022-10-06T11:14:35.316Z,101588.84
2022-10-06T11:17:16.554Z,101594.34
2022-10-06T11:19:53.172Z,101591.00
2022-10-06T11:22:32.419Z,101597.34
2022-10-06T11:25:13.493Z,101594.00
2022-10-06T11:27:49.988Z,101605.53
2022-10-06T11:30:20.415Z,101599.66
2022-10-06T11:33:01.391Z,101599.78
2022-10-06T11:35:38.133Z,101599.97
2022-10-06T11:38:14.525Z,101595.69
2022-10-06T11:40:49.871Z,101596.53
2022-10-06T11:43:35.011Z,101593.97
2022-10-06T11:46:11.025Z,101593.34
2022-10-06T11:48:39.483Z,101596.28
2022-10-06T11:51:30.406Z,101602.81
2022-10-06T11:53:59.700Z,101605.56
2022-10-06T11:56:46.550Z,101600.41
2022-10-06T11:59:26.954Z,101596.13
2022-10-06T12:01:57.812Z,101589.94
2022-10-06T12:04:27.300Z,101593.56
2022-10-06T12:07:01.906Z,101587.59
2022-10-06T12:09:52.760Z,101591.34
2022-10-06T12:13:05.365Z,101590.59
2022-10-06T12:19:21.383Z,101584.94
2022-10-06T12:22:01.857Z,101574.59
2022-10-06T12:24:41.261Z,101579.06
2022-10-06T12:27:28.790Z,101575.63
2022-10-06T12:30:03.964Z,101572.09
2022-10-06T12:32:46.288Z,101580.19
2022-10-06T12:35:31.330Z,101574.88
2022-10-06T12:38:04.731Z,101559.81
2022-10-06T12:40:57.037Z,101559.94
2022-10-06T12:43:58.441Z,101563.72
2022-10-06T12:46:37.360Z,101566.66
2022-10-06T12:49:39.056Z,101557.19
2022-10-06T12:52:15.113Z,101561.56
2022-10-06T12:54:53.431Z,101565.31
2022-10-06T12:57:23.320Z,101563.69
2022-10-06T12:59:51.586Z,101556.66
2022-10-06T13:02:22.091Z,101556.84
2022-10-06T13:04:54.206Z,101557.06
2022-10-06T13:07:24.913Z,101562.47
2022-10-06T13:10:10.839Z,101558.84
2022-10-06T13:12:39.957Z,101556.25
2022-10-06T13:15:17.502Z,101549.34
2022-10-06T13:17:49.530Z,101551.31
2022-10-06T13:20:21.753Z,101547.09
2022-10-06T13:22:57.393Z,101546.41
2022-10-06T13:25:32.134Z,101534.97
2022-10-06T13:28:02.199Z,101541.22
2022-10-06T13:30:33.843Z,101544.03
2022-10-06T13:33:04.744Z,101541.44
2022-10-06T13:35:33.054Z,101545.75
2022-10-06T13:38:03.936Z,101543.09
2022-10-06T13:40:44.875Z,101538.78
2022-10-06T13:43:20.125Z,101543.38
2022-10-06T13:45:49.387Z,101542.50
2022-10-06T13:48:21.789Z,101539.13
2022-10-06T13:50:52.964Z,101542.66
2022-10-06T13:53:31.101Z,101547.22
2022-10-06T13:56:01.059Z,101547.19
2022-10-06T13:58:31.179Z,101552.41
2022-10-06T14:01:01.880Z,101538.88
2022-10-06T14:06:13.070Z,101547.09
2022-10-06T14:08:41.503Z,101542.75
2022-10-06T14:11:11.800Z,101546.34
2022-10-06T14:13:48.856Z,101541.97
2022-10-06T14:19:34.035Z,101533.16
2022-10-06T14:22:06.499Z,101542.97
2022-10-06T14:24:37.261Z,101539.41
2022-10-06T14:27:07.806Z,101541.25
2022-10-06T14:29:37.895Z,101544.88
2022-10-06T14:32:11.462Z,101541.22
2022-10-06T14:34:40.599Z,101539.47
2022-10-06T14:37:15.224Z,101544.78
2022-10-06T14:39:44.895Z,101542.13
2022-10-06T14:42:15.459Z,101546.59
2022-10-06T14:44:44.827Z,101542.19
2022-10-06T14:47:14.171Z,101536.00
2022-10-06T14:49:44.855Z,101530.69
2022-10-06T14:52:13.175Z,101545.84
2022-10-06T14:54:42.832Z,101532.44
2022-10-06T14:57:11.154Z,101532.50
2022-10-06T14:59:40.860Z,101537.84
2022-10-06T15:02:10.815Z,101540.56
2022-10-06T15:04:39.122Z,101536.06
2022-10-06T15:07:25.220Z,101532.56
2022-10-06T15:09:53.553Z,101538.88
2022-10-06T15:12:21.945Z,101539.84
2022-10-06T15:14:51.607Z,101533.66
2022-10-06T15:17:19.935Z,101532.78
2022-10-06T15:19:48.504Z,101534.59
2022-10-06T15:22:16.969Z,101531.06
2022-10-06T15:24:50.214Z,101533.69
2022-10-06T15:27:35.854Z,101529.25
2022-10-06T15:30:06.519Z,101531.03
2022-10-06T15:32:34.860Z,101524.81
2022-10-06T15:35:03.280Z,101520.38
2022-10-06T15:37:31.754Z,101522.16
2022-10-06T15:40:01.438Z,101526.59
2022-10-06T15:42:29.816Z,101526.59
2022-10-06T15:44:58.303Z,101521.22
2022-10-06T15:47:29.207Z,101527.34
2022-10-06T15:49:57.628Z,101516.59
2022-10-06T15:52:26.025Z,101520.00
2022-10-06T15:54:54.312Z,101517.19
2022-10-06T15:57:25.223Z,101519.72
2022-10-06T15:59:53.565Z,101515.97
2022-10-06T16:02:22.486Z,101517.56
2022-10-06T16:05:17.602Z,101516.56
2022-10-06T16:07:45.961Z,101517.19
2022-10-06T16:10:14.510Z,101518.72
2022-10-06T16:12:42.825Z,101517.56
2022-10-06T16:15:11.804Z,101514.75
2022-10-06T16:17:40.102Z,101526.94
2022-10-06T16:20:11.489Z,101515.22
2022-10-06T16:22:40.235Z,101520.38
2022-10-06T16:25:09.517Z,101531.63
2022-10-06T16:27:39.328Z,101523.28
2022-10-06T16:30:09.360Z,101520.38
2022-10-06T16:32:38.032Z,101523.75
2022-10-06T16:35:07.617Z,101524.47
2022-10-06T16:37:37.455Z,101520.69
2022-10-06T16:40:06.692Z,101527.63
2022-10-06T16:42:35.041Z,101530.03
2022-10-06T16:45:03.402Z,101527.13
2022-10-06T16:47:31.724Z,101535.72
2022-10-06T16:50:00.026Z,101527.50
2022-10-06T16:52:28.355Z,101530.78
2022-10-06T16:54:58.133Z,101529.59
2022-10-06T16:57:26.453Z,101528.41
2022-10-06T16:59:54.828Z,101536.06
2022-10-06T17:02:23.255Z,101534.06
2022-10-06T17:04:51.673Z,101539.94
2022-10-06T17:07:19.971Z,101534.41
2022-10-06T17:10:08.535Z,101536.72
2022-10-06T17:12:38.461Z,101543.50
2022-10-06T17:15:07.788Z,101543.13
2022-10-06T17:17:36.374Z,101543.66
2022-10-06T17:20:05.472Z,101539.75
2022-10-06T17:22:34.042Z,101545.56
2022-10-06T17:25:02.600Z,101541.69
2022-10-06T17:27:37.161Z,101543.97
2022-10-06T17:30:10.799Z,101538.31
2022-10-06T17:32:39.296Z,101541.50
2022-10-06T17:35:08.776Z,101548.16
2022-10-06T17:37:40.278Z,101542.50
2022-10-06T17:40:09.445Z,101545.56
2022-10-06T17:42:38.113Z,101540.88
2022-10-06T17:45:07.301Z,101549.31
2022-10-06T17:47:36.963Z,101547.97
2022-10-06T17:50:06.179Z,101555.53
2022-10-06T17:52:35.448Z,101552.53
2022-10-06T17:55:03.893Z,101548.72
2022-10-06T17:57:33.506Z,101547.53
2022-10-06T18:00:01.824Z,101555.25
2022-10-06T18:02:41.800Z,101546.06
2022-10-06T18:05:10.711Z,101551.03
2022-10-06T18:07:39.878Z,101541.94
2022-10-06T18:10:26.555Z,101537.25
2022-10-06T18:12:54.820Z,101538.72
2022-10-06T18:15:23.186Z,101541.88
2022-10-06T18:17:53.306Z,101533.63
2022-10-06T18:20:21.949Z,101545.63
2022-10-06T18:22:50.317Z,101540.00
2022-10-06T18:25:21.028Z,101537.97
2022-10-06T18:27:53.164Z,101542.13
2022-10-06T18:30:23.734Z,101543.59
2022-10-06T18:35:29.901Z,101545.09
2022-10-06T18:38:38.901Z,101540.22
2022-10-06T18:41:09.560Z,101539.97
2022-10-06T18:43:37.949Z,101530.13
2022-10-06T18:46:29.899Z,101544.88
2022-10-06T18:49:03.086Z,101535.00
2022-10-06T18:51:33.715Z,101533.09
2022-10-06T18:54:03.619Z,101530.28
2022-10-06T18:56:34.080Z,101530.94
2022-10-06T18:59:04.827Z,101524.72
2022-10-06T19:01:33.991Z,101527.16
2022-10-06T19:04:05.413Z,101526.13
2022-10-06T19:06:34.177Z,101533.81
2022-10-06T19:09:03.006Z,101541.44
2022-10-06T19:11:48.606Z,101538.56
2022-10-06T19:14:19.345Z,101552.34
2022-10-06T19:16:48.908Z,101546.03
2022-10-06T19:19:21.890Z,101555.47
2022-10-06T19:21:52.352Z,101543.84
2022-10-06T19:24:25.363Z,101544.53
2022-10-06T19:26:56.319Z,101540.00
2022-10-06T19:29:26.894Z,101550.22
2022-10-06T19:31:57.519Z,101549.13
2022-10-06T19:34:27.323Z,101548.16
2022-10-06T19:36:57.912Z,101544.44
2022-10-06T19:39:30.553Z,101545.97
2022-10-06T19:42:17.033Z,101547.56
2022-10-06T19:44:45.531Z,101550.81
2022-10-06T19:47:15.890Z,101550.63
2022-10-06T19:49:45.878Z,101548.75
2022-10-06T19:52:14.651Z,101557.28
2022-10-06T19:54:43.407Z,101554.50
2022-10-06T19:57:12.367Z,101555.19
2022-10-06T19:59:41.101Z,101550.66
2022-10-06T20:02:11.543Z,101549.50
2022-10-06T20:04:40.095Z,101538.00
2022-10-06T20:07:10.534Z,101547.47
2022-10-06T20:09:38.908Z,101553.50
2022-10-06T20:12:07.241Z,101555.03
2022-10-06T20:14:36.350Z,101573.16
2022-10-06T20:17:04.935Z,101551.91
2022-10-06T20:19:33.333Z,101554.31
2022-10-06T20:22:04.349Z,101548.84
2022-10-06T20:24:34.119Z,101553.06
2022-10-06T20:27:02.437Z,101558.13
2022-10-06T20:29:31.507Z,101556.22
2022-10-06T20:31:59.885Z,101549.91
2022-10-06T20:34:31.779Z,101556.66
2022-10-06T20:37:02.318Z,101553.00
2022-10-06T20:39:49.573Z,101552.78
2022-10-06T20:42:20.911Z,101566.53
2022-10-06T20:44:49.584Z,101560.28
2022-10-06T20:47:18.029Z,101554.06
2022-10-06T20:49:46.424Z,101544.28
2022-10-06T20:52:15.097Z,101545.91
2022-10-06T20:54:44.190Z,101550.97
2022-10-06T20:57:13.009Z,101546.47
2022-10-06T20:59:45.165Z,101546.44
2022-10-06T21:02:13.675Z,101547.09
2022-10-06T21:04:43.314Z,101550.41
2022-10-06T21:07:11.781Z,101543.34
2022-10-06T21:09:40.204Z,101545.81
2022-10-06T21:12:08.746Z,101539.44
2022-10-06T21:14:37.471Z,101529.63
2022-10-06T21:17:07.168Z,101533.75
2022-10-06T21:19:37.882Z,101530.97
2022-10-06T21:22:06.896Z,101531.63
2022-10-06T21:24:35.284Z,101528.88
2022-10-06T21:27:03.612Z,101540.00
2022-10-06T21:29:31.941Z,101537.22
2022-10-06T21:32:00.407Z,101524.75
2022-10-06T21:34:30.223Z,101530.72
2022-10-06T21:36:58.588Z,101534.91
2022-10-06T21:39:27.086Z,101528.66
2022-10-06T21:41:55.531Z,101521.59
2022-10-06T21:44:24.056Z,101526.69
2022-10-06T21:46:53.914Z,101513.53
2022-10-06T21:49:23.810Z,101527.44
2022-10-06T21:51:55.539Z,101516.88
2022-10-06T21:54:24.448Z,101510.69
2022-10-06T21:56:52.924Z,101514.94
2022-10-06T21:59:21.376Z,101506.13
2022-10-06T22:01:50.564Z,101504.34
2022-10-06T22:04:18.965Z,101503.34
2022-10-06T22:06:50.013Z,101499.84
2022-10-06T22:09:21.300Z,101503.25
2022-10-06T22:11:50.198Z,101491.00
2022-10-06T22:14:20.286Z,101497.03
2022-10-06T22:16:48.678Z,101496.97
2022-10-06T22:19:17.759Z,101496.88
2022-10-06T22:21:48.037Z,101495.00
2022-10-06T22:24:18.556Z,101492.31
2022-10-06T22:26:49.559Z,101493.13
2022-10-06T22:29:19.507Z,101482.53
2022-10-06T22:31:48.967Z,101485.94
2022-10-06T22:34:19.235Z,101485.72
2022-10-06T22:36:47.604Z,101482.28
2022-10-06T22:39:16.263Z,101482.19
2022-10-06T22:41:46.283Z,101481.22
2022-10-06T22:44:16.009Z,101475.09
2022-10-06T22:46:44.498Z,101472.56
2022-10-06T22:49:13.113Z,101475.09
2022-10-06T22:51:43.686Z,101466.34
2022-10-06T22:54:18.519Z,101468.97
2022-10-06T22:56:46.838Z,101463.72
2022-10-06T22:59:16.532Z,101457.59
2022-10-06T23:01:44.895Z,101444.44
2022-10-06T23:04:13.303Z,101446.06
2022-10-06T23:06:41.653Z,101447.75
2022-10-06T23:09:09.924Z,101444.13
2022-10-06T23:11:38.310Z,101442.31
2022-10-06T23:14:06.609Z,101444.00
2022-10-06T23:16:36.345Z,101435.97
2022-10-06T23:19:05.051Z,101440.25
2022-10-06T23:21:33.337Z,101433.19
2022-10-06T23:24:01.847Z,101428.72
2022-10-06T23:26:30.233Z,101425.09
2022-10-06T23:29:00.024Z,101428.56
2022-10-06T23:31:29.407Z,101420.63
2022-10-06T23:33:59.354Z,101417.94
2022-10-06T23:36:27.659Z,101423.19
2022-10-06T23:38:56.235Z,101425.69
2022-10-06T23:41:24.515Z,101423.97
2022-10-06T23:43:53.031Z,101417.84
2022-10-06T23:46:21.407Z,101414.34
2022-10-06T23:48:49.893Z,101415.09
2022-10-06T23:51:19.603Z,101411.50
2022-10-06T23:53:48.267Z,101413.28
2022-10-06T23:56:18.792Z,101408.88
2022-10-06T23:58:47.175Z,101411.50
